createdAt,value
2018-04-10T00:00:15.895Z,83.25
2018-04-10T00:02:43.492Z,83.41
2018-04-10T00:05:11.156Z,81.96
2018-04-10T00:07:38.753Z,80.75
2018-04-10T00:10:06.381Z,82.41
2018-04-10T00:12:34.008Z,82.34
2018-04-10T00:15:01.593Z,83.19
2018-04-10T00:17:29.192Z,84.75
2018-04-10T00:19:56.812Z,86.95
2018-04-10T00:22:24.406Z,86.23
2018-04-10T00:24:52.008Z,86.48
2018-04-10T00:27:19.669Z,86.24
2018-04-10T00:29:47.276Z,86.43
2018-04-10T00:32:14.873Z,85.99
2018-04-10T00:34:42.544Z,86.06
2018-04-10T00:37:10.137Z,88.18
2018-04-10T00:39:37.742Z,87.46
2018-04-10T00:42:05.363Z,87.39
2018-04-10T00:44:32.963Z,87.89
2018-04-10T00:47:00.631Z,88.11
2018-04-10T00:49:28.311Z,87.92
2018-04-10T00:51:55.889Z,87.78
2018-04-10T00:54:23.512Z,87.95
2018-04-10T00:56:51.175Z,89.90
2018-04-10T00:59:18.779Z,89.35
2018-04-10T01:01:46.419Z,89.60
2018-04-10T01:04:14.053Z,90.65
2018-04-10T01:06:41.633Z,90.59
2018-04-10T01:09:09.240Z,91.13
2018-04-10T01:11:36.874Z,91.96
2018-04-10T01:14:04.495Z,92.52
2018-04-10T01:16:32.090Z,92.97
2018-04-10T01:18:59.717Z,92.87
2018-04-10T01:21:27.318Z,90.78
2018-04-10T01:23:54.906Z,90.33
2018-04-10T01:26:22.533Z,90.35
2018-04-10T01:28:50.127Z,90.08
2018-04-10T01:31:17.736Z,91.22
2018-04-10T01:33:45.353Z,91.20
2018-04-10T01:36:12.955Z,90.41
2018-04-10T01:38:40.537Z,90.44
2018-04-10T01:41:08.146Z,91.31
2018-04-10T01:43:35.754Z,91.90
2018-04-10T01:46:03.345Z,92.03
2018-04-10T01:48:30.993Z,91.97
2018-04-10T01:50:58.641Z,92.87
2018-04-10T01:53:26.238Z,92.07
2018-04-10T01:55:53.880Z,92.28
2018-04-10T01:58:21.502Z,92.74
2018-04-10T02:00:49.112Z,93.59
2018-04-10T02:03:16.738Z,93.53
2018-04-10T02:05:44.310Z,93.39
2018-04-10T02:08:11.889Z,93.44
2018-04-10T02:10:57.035Z,94.16
2018-04-10T02:13:24.623Z,93.51
2018-04-10T02:15:52.235Z,93.11
2018-04-10T02:18:19.896Z,93.00
2018-04-10T02:20:47.484Z,93.53
2018-04-10T02:23:15.088Z,93.37
2018-04-10T02:25:42.737Z,93.33
2018-04-10T02:28:10.335Z,94.59
2018-04-10T02:30:37.929Z,93.61
2018-04-10T02:33:05.648Z,93.27
2018-04-10T02:35:33.309Z,93.46
2018-04-10T02:38:00.918Z,93.84
2018-04-10T02:40:28.538Z,94.17
2018-04-10T02:42:56.132Z,94.09
2018-04-10T02:45:23.714Z,95.27
2018-04-10T02:47:51.369Z,96.22
2018-04-10T02:50:18.976Z,96.01
2018-04-10T02:52:46.572Z,95.94
2018-04-10T02:55:14.192Z,95.81
2018-04-10T02:57:41.789Z,95.59
2018-04-10T03:00:09.383Z,94.94
2018-04-10T03:02:36.996Z,94.94
2018-04-10T03:05:04.582Z,95.07
2018-04-10T03:07:32.172Z,94.83
2018-04-10T03:09:59.816Z,94.91
2018-04-10T03:12:27.418Z,94.41
2018-04-10T03:14:55.031Z,94.81
2018-04-10T03:17:22.716Z,95.80
2018-04-10T03:19:50.760Z,95.05
2018-04-10T03:22:18.354Z,94.92
2018-04-10T03:24:45.995Z,94.59
2018-04-10T03:27:13.628Z,94.71
2018-04-10T03:29:41.237Z,94.81
2018-04-10T03:32:08.874Z,95.32
2018-04-10T03:34:36.479Z,95.20
2018-04-10T03:37:04.068Z,95.16
2018-04-10T03:39:31.717Z,96.36
2018-04-10T03:41:59.309Z,96.76
2018-04-10T03:44:26.906Z,96.15
2018-04-10T03:46:54.530Z,96.19
2018-04-10T03:49:22.112Z,95.39
2018-04-10T03:51:49.699Z,94.77
2018-04-10T03:54:17.313Z,94.93
2018-04-10T03:56:44.948Z,94.77
2018-04-10T03:59:12.530Z,95.13
2018-04-10T04:01:40.144Z,95.29
2018-04-10T04:04:07.732Z,93.14
2018-04-10T04:06:35.343Z,89.73
2018-04-10T04:09:02.952Z,84.80
2018-04-10T04:11:30.549Z,80.91
2018-04-10T04:13:58.169Z,77.17
2018-04-10T04:19:41.575Z,69.92
2018-04-10T04:22:20.860Z,67.23
2018-04-10T04:24:48.484Z,64.95
2018-04-10T04:27:16.079Z,63.24
2018-04-10T04:29:43.668Z,62.12
2018-04-10T04:32:11.298Z,59.29
2018-04-10T04:34:38.900Z,56.75
2018-04-10T04:37:06.471Z,54.42
2018-04-10T04:39:34.101Z,51.67
2018-04-10T04:42:01.725Z,49.22
2018-04-10T04:44:29.313Z,46.69
2018-04-10T04:46:56.946Z,45.54
2018-04-10T04:49:24.648Z,46.40
2018-04-10T04:51:52.386Z,44.27
2018-04-10T04:54:20.176Z,42.81
2018-04-10T04:56:47.894Z,40.19
2018-04-10T04:59:15.509Z,39.95
2018-04-10T05:01:43.354Z,39.91
2018-04-10T05:04:11.045Z,39.72
2018-04-10T05:06:38.700Z,39.63
2018-04-10T05:09:06.355Z,40.66
2018-04-10T05:11:34.025Z,41.04
2018-04-10T05:14:01.693Z,42.14
2018-04-10T05:16:29.355Z,41.29
2018-04-10T05:18:57.019Z,39.26
2018-04-10T05:21:24.864Z,36.14
2018-04-10T05:23:52.535Z,35.61
2018-04-10T05:26:20.142Z,31.61
2018-04-10T05:28:47.857Z,31.41
2018-04-10T05:31:15.524Z,31.65
2018-04-10T05:33:43.191Z,29.14
2018-04-10T05:36:10.847Z,28.31
2018-04-10T05:38:38.511Z,29.75
2018-04-10T05:41:06.129Z,30.01
2018-04-10T05:43:33.834Z,29.21
2018-04-10T05:46:01.501Z,29.24
2018-04-10T05:48:29.089Z,30.01
2018-04-10T05:50:56.831Z,28.74
2018-04-10T05:53:24.492Z,30.26
2018-04-10T05:55:52.223Z,29.52
2018-04-10T05:58:20.072Z,28.55
2018-04-10T06:00:48.062Z,30.26
2018-04-10T06:03:15.803Z,29.27
2018-04-10T06:05:43.626Z,27.54
2018-04-10T06:08:11.686Z,27.43
2018-04-10T06:10:39.354Z,28.30
2018-04-10T06:13:06.937Z,27.64
2018-04-10T06:15:34.683Z,26.37
2018-04-10T06:18:02.342Z,25.14
2018-04-10T06:20:29.996Z,25.09
2018-04-10T06:22:57.876Z,24.07
2018-04-10T06:25:25.538Z,24.03
2018-04-10T06:27:53.232Z,24.09
2018-04-10T06:30:21.067Z,24.87
2018-04-10T06:32:48.914Z,27.34
2018-04-10T06:35:16.497Z,24.24
2018-04-10T06:37:44.131Z,24.12
2018-04-10T06:40:11.708Z,24.87
2018-04-10T06:42:39.379Z,25.09
2018-04-10T06:45:07.248Z,26.65
2018-04-10T06:47:35.118Z,26.74
2018-04-10T06:50:02.775Z,24.81
2018-04-10T06:52:30.441Z,23.67
2018-04-10T06:54:58.101Z,22.84
2018-04-10T06:57:25.688Z,23.23
2018-04-10T06:59:53.330Z,22.09
2018-04-10T07:02:20.920Z,22.94
2018-04-10T07:04:48.536Z,23.90
2018-04-10T07:07:16.188Z,21.92
2018-04-10T07:09:43.767Z,22.20
2018-04-10T07:12:11.350Z,21.46
2018-04-10T07:14:39.108Z,22.56
2018-04-10T07:17:06.689Z,20.41
2018-04-10T07:19:34.272Z,21.51
2018-04-10T07:22:01.977Z,21.48
2018-04-10T07:24:29.570Z,21.30
2018-04-10T07:26:57.167Z,20.73
2018-04-10T07:29:24.808Z,20.86
2018-04-10T07:31:52.391Z,22.94
2018-04-10T07:34:19.980Z,20.65
2018-04-10T07:36:47.607Z,20.27
2018-04-10T07:39:15.199Z,20.40
2018-04-10T07:41:42.796Z,20.02
2018-04-10T07:44:10.429Z,21.11
2018-04-10T07:46:38.032Z,21.48
2018-04-10T07:49:05.629Z,21.34
2018-04-10T07:51:33.313Z,21.96
2018-04-10T07:54:00.899Z,19.21
2018-04-10T07:56:28.484Z,20.56
2018-04-10T07:58:56.113Z,19.54
2018-04-10T08:01:23.705Z,19.73
2018-04-10T08:03:51.416Z,22.11
2018-04-10T08:06:19.051Z,21.26
2018-04-10T08:08:46.651Z,20.19
2018-04-10T08:11:14.252Z,20.33
2018-04-10T08:13:41.962Z,18.89
2018-04-10T08:16:09.713Z,18.34
2018-04-10T08:18:37.311Z,21.19
2018-04-10T08:21:04.935Z,20.05
2018-04-10T08:23:32.577Z,19.37
2018-04-10T08:26:00.161Z,19.50
2018-04-10T08:28:27.810Z,19.22
2018-04-10T08:30:55.495Z,18.50
2018-04-10T08:33:23.080Z,20.24
2018-04-10T08:35:50.697Z,19.31
2018-04-10T08:38:18.290Z,19.29
2018-04-10T08:40:45.883Z,18.37
2018-04-10T08:43:13.585Z,18.88
2018-04-10T08:45:41.176Z,17.55
2018-04-10T08:48:08.778Z,17.50
2018-04-10T08:50:36.464Z,17.80
2018-04-10T08:53:04.056Z,18.39
2018-04-10T08:55:31.641Z,18.42
2018-04-10T08:57:59.245Z,18.85
2018-04-10T09:00:26.828Z,20.62
2018-04-10T09:02:54.464Z,18.38
2018-04-10T09:05:22.096Z,19.51
2018-04-10T09:07:49.681Z,19.44
2018-04-10T09:10:17.258Z,19.36
2018-04-10T09:12:44.879Z,18.11
2018-04-10T09:15:12.469Z,18.91
2018-04-10T09:17:40.056Z,19.14
2018-04-10T09:20:07.676Z,20.47
2018-04-10T09:22:35.267Z,18.65
2018-04-10T09:25:02.857Z,17.79
2018-04-10T09:27:30.484Z,15.85
2018-04-10T09:29:58.078Z,16.55
2018-04-10T09:32:25.685Z,17.32
2018-04-10T09:34:53.295Z,17.76
2018-04-10T09:37:20.874Z,18.42
2018-04-10T09:39:48.474Z,19.93
2018-04-10T09:42:16.081Z,21.10
2018-04-10T09:44:43.661Z,18.25
2018-04-10T09:47:11.243Z,16.10
2018-04-10T09:49:38.858Z,15.82
2018-04-10T09:52:06.436Z,17.15
2018-04-10T09:54:34.009Z,16.92
2018-04-10T09:57:01.631Z,18.38
2018-04-10T09:59:29.187Z,17.80
2018-04-10T10:01:56.750Z,16.75
2018-04-10T10:04:24.386Z,16.15
2018-04-10T10:06:52.072Z,16.08
2018-04-10T10:09:19.672Z,16.27
2018-04-10T10:11:47.349Z,15.26
2018-04-10T10:14:14.936Z,15.28
2018-04-10T10:16:42.520Z,14.53
2018-04-10T10:19:10.139Z,14.70
2018-04-10T10:21:37.717Z,15.34
2018-04-10T10:24:05.289Z,15.72
2018-04-10T10:26:32.895Z,17.51
2018-04-10T10:29:00.463Z,18.79
2018-04-10T10:31:28.032Z,16.77
2018-04-10T10:33:55.646Z,16.62
2018-04-10T10:36:23.241Z,16.80
2018-04-10T10:38:50.813Z,17.26
2018-04-10T10:41:18.410Z,18.20
2018-04-10T10:43:45.982Z,17.88
2018-04-10T10:46:13.569Z,18.94
2018-04-10T10:48:41.188Z,17.24
2018-04-10T10:51:08.776Z,17.49
2018-04-10T10:53:36.390Z,17.06
2018-04-10T10:56:04.022Z,19.96
2018-04-10T10:58:31.614Z,17.90
2018-04-10T11:00:59.218Z,17.72
2018-04-10T11:03:26.901Z,17.32
2018-04-10T11:05:54.554Z,15.73
2018-04-10T11:08:22.136Z,17.80
2018-04-10T11:10:50.070Z,18.42
2018-04-10T11:13:17.667Z,17.79
2018-04-10T11:15:45.257Z,19.42
2018-04-10T11:18:12.895Z,19.01
2018-04-10T11:20:40.480Z,18.65
2018-04-10T11:23:08.062Z,19.53
2018-04-10T11:25:35.680Z,17.79
2018-04-10T11:28:03.265Z,18.58
2018-04-10T11:30:30.851Z,17.56
2018-04-10T11:32:58.496Z,18.88
2018-04-10T11:35:26.071Z,19.26
2018-04-10T11:37:53.689Z,21.17
2018-04-10T11:40:21.316Z,18.45
2018-04-10T11:42:48.900Z,17.14
2018-04-10T11:45:16.524Z,16.30
2018-04-10T11:47:44.144Z,15.67
2018-04-10T11:50:11.711Z,16.13
2018-04-10T11:52:39.280Z,16.29
2018-04-10T11:55:06.885Z,16.16
2018-04-10T11:57:34.467Z,19.73
2018-04-10T12:00:02.079Z,17.91
2018-04-10T12:02:29.703Z,18.56
2018-04-10T12:04:57.285Z,20.17
2018-04-10T12:07:24.887Z,19.13
2018-04-10T12:09:52.491Z,17.35
2018-04-10T12:12:20.080Z,16.82
2018-04-10T12:14:47.658Z,17.30
2018-04-10T12:17:15.260Z,18.73
2018-04-10T12:19:42.849Z,17.55
2018-04-10T12:22:11.325Z,16.78
2018-04-10T12:24:41.125Z,16.84
2018-04-10T12:27:08.820Z,18.06
2018-04-10T12:29:36.397Z,18.04
2018-04-10T12:32:04.041Z,17.39
2018-04-10T12:34:31.652Z,16.39
2018-04-10T12:36:59.252Z,16.20
2018-04-10T12:39:26.867Z,17.79
2018-04-10T12:41:54.448Z,19.67
2018-04-10T12:44:22.030Z,21.17
2018-04-10T12:46:49.652Z,21.28
2018-04-10T12:49:17.373Z,22.19
2018-04-10T12:51:44.965Z,21.88
2018-04-10T12:54:12.591Z,21.92
2018-04-10T12:56:40.193Z,21.28
2018-04-10T12:59:07.783Z,19.05
2018-04-10T13:01:35.400Z,19.71
2018-04-10T13:04:02.979Z,21.96
2018-04-10T13:06:30.591Z,19.54
2018-04-10T13:08:58.204Z,20.28
2018-04-10T13:11:25.911Z,21.44
2018-04-10T13:13:53.591Z,22.25
2018-04-10T13:16:21.157Z,22.14
2018-04-10T13:18:48.744Z,22.92
2018-04-10T13:21:16.351Z,22.98
2018-04-10T13:23:43.985Z,25.07
2018-04-10T13:26:11.587Z,24.75
2018-04-10T13:28:39.184Z,26.71
2018-04-10T13:31:07.069Z,26.73
2018-04-10T13:33:34.868Z,26.46
2018-04-10T13:36:02.444Z,26.24
2018-04-10T13:38:30.088Z,25.93
2018-04-10T13:40:57.671Z,27.31
2018-04-10T13:43:25.297Z,25.85
2018-04-10T13:45:52.884Z,25.64
2018-04-10T13:48:20.462Z,25.92
2018-04-10T13:50:48.101Z,26.38
2018-04-10T13:53:15.723Z,27.52
2018-04-10T13:55:43.292Z,27.12
2018-04-10T13:58:10.867Z,27.80
2018-04-10T14:00:38.534Z,26.96
2018-04-10T14:03:06.108Z,27.23
2018-04-10T14:05:33.670Z,26.54
2018-04-10T14:08:01.312Z,26.49
2018-04-10T14:10:28.891Z,26.18
2018-04-10T14:12:56.464Z,25.92
2018-04-10T14:15:24.100Z,26.30
2018-04-10T14:17:51.670Z,25.93
2018-04-10T14:20:19.240Z,26.23
2018-04-10T14:22:46.839Z,26.35
2018-04-10T14:25:14.447Z,25.84
2018-04-10T14:27:42.217Z,25.54
2018-04-10T14:30:09.840Z,25.67
2018-04-10T14:32:37.424Z,25.66
2018-04-10T14:35:05.046Z,26.60
2018-04-10T14:37:32.666Z,25.61
2018-04-10T14:40:00.247Z,24.91
2018-04-10T14:42:27.828Z,22.64
2018-04-10T14:44:55.475Z,22.26
2018-04-10T14:47:23.046Z,21.48
2018-04-10T14:49:50.620Z,21.38
2018-04-10T14:52:18.285Z,21.52
2018-04-10T14:54:45.849Z,22.43
2018-04-10T14:57:13.416Z,22.30
2018-04-10T14:59:41.111Z,22.66
2018-04-10T15:02:08.769Z,22.16
2018-04-10T15:04:36.437Z,22.79
2018-04-10T15:07:04.064Z,22.86
2018-04-10T15:09:31.645Z,23.42
2018-04-10T15:11:59.211Z,23.73
2018-04-10T15:14:27.046Z,23.54
2018-04-10T15:16:54.779Z,23.94
2018-04-10T15:19:22.401Z,24.08
2018-04-10T15:21:49.998Z,24.09
2018-04-10T15:24:17.719Z,24.50
2018-04-10T15:26:45.282Z,23.91
2018-04-10T15:29:12.900Z,24.27
2018-04-10T15:31:40.475Z,24.32
2018-04-10T15:34:08.040Z,24.18
2018-04-10T15:36:35.830Z,24.46
2018-04-10T15:39:03.690Z,24.67
2018-04-10T15:41:32.926Z,24.78
2018-04-10T15:44:02.163Z,25.25
2018-04-10T15:46:32.487Z,25.14
2018-04-10T15:49:02.626Z,25.45
2018-04-10T15:51:32.961Z,25.77
2018-04-10T15:54:03.517Z,26.20
2018-04-10T15:56:34.013Z,26.00
2018-04-10T15:59:04.507Z,26.50
2018-04-10T16:01:34.532Z,26.11
2018-04-10T16:04:04.770Z,26.21
2018-04-10T16:06:33.624Z,26.81
2018-04-10T16:09:03.191Z,27.68
2018-04-10T16:11:32.434Z,27.49
2018-04-10T16:14:02.139Z,27.10
2018-04-10T16:16:31.408Z,27.78
2018-04-10T16:19:00.684Z,27.56
2018-04-10T16:21:28.462Z,27.43
2018-04-10T16:23:56.238Z,27.29
2018-04-10T16:26:23.832Z,27.56
2018-04-10T16:28:51.461Z,27.32
2018-04-10T16:31:19.068Z,27.67
2018-04-10T16:33:46.680Z,27.76
2018-04-10T16:36:14.327Z,28.36
2018-04-10T16:38:41.917Z,28.48
2018-04-10T16:41:09.672Z,27.67
2018-04-10T16:43:37.307Z,27.83
2018-04-10T16:46:04.995Z,28.83
2018-04-10T16:48:32.639Z,28.70
2018-04-10T16:51:00.249Z,27.81
2018-04-10T16:53:27.980Z,28.12
2018-04-10T16:55:55.636Z,28.91
2018-04-10T16:58:23.292Z,30.99
2018-04-10T17:00:50.964Z,30.46
2018-04-10T17:03:18.615Z,30.77
2018-04-10T17:05:46.234Z,32.61
2018-04-10T17:08:13.844Z,32.27
2018-04-10T17:10:41.418Z,32.47
2018-04-10T17:13:09.075Z,34.93
2018-04-10T17:15:36.737Z,35.91
2018-04-10T17:18:04.306Z,34.62
2018-04-10T17:20:32.065Z,36.91
2018-04-10T17:22:59.907Z,38.27
2018-04-10T17:25:27.628Z,36.44
2018-04-10T17:27:55.247Z,40.22
2018-04-10T17:30:23.119Z,41.77
2018-04-10T17:32:50.705Z,43.32
2018-04-10T17:35:18.314Z,41.66
2018-04-10T17:37:46.268Z,44.32
2018-04-10T17:40:13.864Z,42.94
2018-04-10T17:42:41.487Z,45.23
2018-04-10T17:45:09.103Z,44.80
2018-04-10T17:47:36.742Z,45.09
2018-04-10T17:50:04.416Z,46.77
2018-04-10T17:52:32.080Z,46.15
2018-04-10T17:54:59.739Z,45.71
2018-04-10T17:57:27.380Z,45.49
2018-04-10T17:59:55.054Z,47.54
2018-04-10T18:02:22.931Z,46.55
2018-04-10T18:04:50.575Z,46.72
2018-04-10T18:07:18.185Z,47.63
2018-04-10T18:09:45.770Z,47.82
2018-04-10T18:12:13.433Z,44.85
2018-04-10T18:14:41.043Z,47.13
2018-04-10T18:17:08.690Z,46.79
2018-04-10T18:19:36.354Z,48.22
2018-04-10T18:22:04.013Z,48.99
2018-04-10T18:24:31.682Z,48.19
2018-04-10T18:26:59.333Z,50.04
2018-04-10T18:29:26.999Z,51.26
2018-04-10T18:31:54.656Z,51.49
2018-04-10T18:34:22.320Z,52.35
2018-04-10T18:36:49.963Z,51.86
2018-04-10T18:39:17.537Z,52.34
2018-04-10T18:41:45.144Z,52.57
2018-04-10T18:44:12.991Z,52.70
2018-04-10T18:46:40.841Z,52.63
2018-04-10T18:49:08.564Z,52.42
2018-04-10T18:51:36.181Z,53.55
2018-04-10T18:54:03.756Z,52.67
2018-04-10T18:56:31.487Z,52.90
2018-04-10T18:58:59.084Z,53.94
2018-04-10T19:01:27.023Z,54.01
2018-04-10T19:03:54.685Z,54.28
2018-04-10T19:06:22.299Z,55.18
2018-04-10T19:08:49.878Z,54.78
2018-04-10T19:11:17.481Z,55.32
2018-04-10T19:13:45.122Z,55.13
2018-04-10T19:16:12.795Z,54.44
2018-04-10T19:18:40.737Z,53.85
2018-04-10T19:21:08.741Z,52.18
2018-04-10T19:23:36.574Z,52.16
2018-04-10T19:26:04.201Z,54.45
2018-04-10T19:28:31.986Z,51.35
2018-04-10T19:30:59.796Z,53.94
2018-04-10T19:33:27.404Z,53.31
2018-04-10T19:35:55.005Z,53.77
2018-04-10T19:38:22.783Z,52.54
2018-04-10T19:40:50.432Z,52.68
2018-04-10T19:43:18.096Z,51.78
2018-04-10T19:45:45.752Z,54.41
2018-04-10T19:48:13.369Z,54.16
2018-04-10T19:50:41.233Z,54.86
2018-04-10T19:53:08.950Z,55.20
2018-04-10T19:55:36.670Z,55.01
2018-04-10T19:58:04.338Z,56.10
2018-04-10T20:00:32.033Z,54.62
2018-04-10T20:02:59.668Z,57.33
2018-04-10T20:05:27.247Z,56.61
2018-04-10T20:07:55.176Z,55.35
2018-04-10T20:10:23.500Z,54.51
2018-04-10T20:12:51.065Z,53.27
2018-04-10T20:15:18.642Z,52.92
2018-04-10T20:17:46.377Z,54.14
2018-04-10T20:20:13.989Z,52.70
2018-04-10T20:22:41.633Z,55.54
2018-04-10T20:25:09.253Z,54.96
2018-04-10T20:27:36.892Z,60.46
2018-04-10T20:30:04.500Z,55.69
2018-04-10T20:32:32.126Z,60.67
2018-04-10T20:34:59.718Z,56.13
2018-04-10T20:37:27.339Z,53.37
2018-04-10T20:39:54.959Z,54.70
2018-04-10T20:42:22.596Z,56.99
2018-04-10T20:44:50.272Z,55.08
2018-04-10T20:47:17.912Z,55.19
2018-04-10T20:49:45.553Z,56.64
2018-04-10T20:52:13.123Z,55.53
2018-04-10T20:54:40.712Z,55.75
2018-04-10T20:57:08.336Z,57.59
2018-04-10T20:59:35.929Z,57.67
2018-04-10T21:02:03.521Z,57.51
2018-04-10T21:04:31.169Z,59.00
2018-04-10T21:06:58.772Z,58.39
2018-04-10T21:09:26.399Z,59.65
2018-04-10T21:11:54.157Z,59.03
2018-04-10T21:14:21.753Z,58.95
2018-04-10T21:16:49.380Z,59.00
2018-04-10T21:19:16.989Z,63.20
2018-04-10T21:21:44.556Z,60.30
2018-04-10T21:24:12.128Z,59.56
2018-04-10T21:26:39.740Z,60.13
2018-04-10T21:29:07.307Z,62.39
2018-04-10T21:31:34.884Z,61.95
2018-04-10T21:34:02.509Z,61.32
2018-04-10T21:36:30.143Z,62.37
2018-04-10T21:38:57.723Z,65.89
2018-04-10T21:41:25.329Z,63.41
2018-04-10T21:43:52.995Z,63.15
2018-04-10T21:46:20.552Z,64.14
2018-04-10T21:48:48.172Z,65.46
2018-04-10T21:51:15.760Z,64.06
2018-04-10T21:53:43.319Z,66.07
2018-04-10T21:56:10.947Z,65.77
2018-04-10T21:58:38.531Z,66.02
2018-04-10T22:01:06.100Z,65.13
2018-04-10T22:03:33.694Z,65.65
2018-04-10T22:06:01.268Z,68.55
2018-04-10T22:08:28.849Z,66.95
2018-04-10T22:10:56.453Z,67.66
2018-04-10T22:13:24.033Z,65.78
2018-04-10T22:15:51.664Z,65.72
2018-04-10T22:18:19.269Z,64.98
2018-04-10T22:20:46.856Z,65.67
2018-04-10T22:23:14.423Z,64.25
2018-04-10T22:25:42.050Z,63.01
2018-04-10T22:28:09.677Z,63.45
2018-04-10T22:30:37.288Z,64.53
2018-04-10T22:33:04.877Z,64.37
2018-04-10T22:35:32.439Z,64.60
2018-04-10T22:38:00.004Z,64.05
2018-04-10T22:40:27.653Z,63.64
2018-04-10T22:42:55.245Z,64.47
2018-04-10T22:45:22.864Z,67.49
2018-04-10T22:47:50.501Z,67.48
2018-04-10T22:50:18.108Z,65.64
2018-04-10T22:52:45.703Z,65.12
2018-04-10T22:55:13.381Z,63.83
2018-04-10T22:57:40.964Z,63.52
2018-04-10T23:00:08.630Z,63.81
2018-04-10T23:02:36.254Z,65.04
2018-04-10T23:05:03.847Z,65.53
2018-04-10T23:07:31.438Z,65.14
2018-04-10T23:09:59.251Z,65.90
2018-04-10T23:12:26.899Z,65.32
2018-04-10T23:14:54.530Z,65.27
2018-04-10T23:17:22.177Z,68.90
2018-04-10T23:19:49.777Z,70.42
2018-04-10T23:22:17.361Z,66.63
2018-04-10T23:24:45.017Z,66.21
2018-04-10T23:27:12.653Z,66.52
2018-04-10T23:29:40.234Z,67.17
2018-04-10T23:32:07.903Z,67.77
2018-04-10T23:34:35.491Z,67.70
2018-04-10T23:37:03.127Z,72.40
2018-04-10T23:39:30.749Z,70.12
2018-04-10T23:41:58.340Z,70.52
2018-04-10T23:44:25.985Z,72.10
2018-04-10T23:46:53.626Z,72.04
2018-04-10T23:49:21.221Z,72.94
2018-04-10T23:51:48.813Z,72.08
2018-04-10T23:54:16.437Z,71.57
2018-04-10T23:56:44.028Z,72.22
2018-04-10T23:59:11.618Z,71.84
